sensor_id;sensor_type;location;lat;lon;timestamp;pressure;altitude;pressure_sealevel;temperature;humidity
77452;BME280;66537;52.370;4.832;2023-07-29T00:00:21;100807.25;;;17.24;100.00
77452;BME280;66537;52.370;4.832;2023-07-29T00:02:46;100805.97;;;17.31;100.00
77452;BME280;66537;52.370;4.832;2023-07-29T00:05:12;100791.13;;;17.32;100.00
77452;BME280;66537;52.370;4.832;2023-07-29T00:07:37;100783.50;;;17.43;100.00
77452;BME280;66537;52.370;4.832;2023-07-29T00:10:03;100783.59;;;17.41;100.00
77452;BME280;66537;52.370;4.832;2023-07-29T00:12:28;100783.78;;;17.38;100.00
77452;BME280;66537;52.370;4.832;2023-07-29T00:14:54;100779.97;;;17.44;100.00
77452;BME280;66537;52.370;4.832;2023-07-29T00:17:20;100780.16;;;17.41;100.00
77452;BME280;66537;52.370;4.832;2023-07-29T00:19:46;100780.81;;;17.44;100.00
77452;BME280;66537;52.370;4.832;2023-07-29T00:22:11;100774.56;;;17.47;100.00
77452;BME280;66537;52.370;4.832;2023-07-29T00:24:37;100772.81;;;17.47;100.00
77452;BME280;66537;52.370;4.832;2023-07-29T00:27:02;100774.56;;;17.47;100.00
77452;BME280;66537;52.370;4.832;2023-07-29T00:29:28;100769.66;;;17.56;100.00
77452;BME280;66537;52.370;4.832;2023-07-29T00:31:53;100764.53;;;17.55;100.00
77452;BME280;66537;52.370;4.832;2023-07-29T00:34:18;100770.69;;;17.38;100.00
77452;BME280;66537;52.370;4.832;2023-07-29T00:36:45;100759.47;;;17.52;100.00
77452;BME280;66537;52.370;4.832;2023-07-29T00:39:11;100765.75;;;17.49;100.00
77452;BME280;66537;52.370;4.832;2023-07-29T00:41:36;100761.47;;;17.62;100.00
77452;BME280;66537;52.370;4.832;2023-07-29T00:44:02;100759.50;;;17.66;100.00
77452;BME280;66537;52.370;4.832;2023-07-29T00:46:28;100764.75;;;17.66;100.00
77452;BME280;66537;52.370;4.832;2023-07-29T00:48:56;100766.34;;;17.68;100.00
77452;BME280;66537;52.370;4.832;2023-07-29T00:51:22;100757.66;;;17.68;100.00
77452;BME280;66537;52.370;4.832;2023-07-29T00:53:47;100762.22;;;17.64;100.00
77452;BME280;66537;52.370;4.832;2023-07-29T00:56:13;100750.66;;;17.68;100.00
77452;BME280;66537;52.370;4.832;2023-07-29T00:58:38;100755.03;;;17.68;99.86
77452;BME280;66537;52.370;4.832;2023-07-29T01:01:03;100756.28;;;17.76;99.19
77452;BME280;66537;52.370;4.832;2023-07-29T01:03:29;100757.19;;;17.75;99.14
77452;BME280;66537;52.370;4.832;2023-07-29T01:06:41;100744.34;;;17.86;98.07
77452;BME280;66537;52.370;4.832;2023-07-29T01:09:14;100740.75;;;17.73;97.47
77452;BME280;66537;52.370;4.832;2023-07-29T01:12:05;100737.50;;;17.84;96.39
77452;BME280;66537;52.370;4.832;2023-07-29T01:17:15;100733.28;;;17.81;95.77
77452;BME280;66537;52.370;4.832;2023-07-29T01:22:35;100733.53;;;17.63;96.79
77452;BME280;66537;52.370;4.832;2023-07-29T01:25:01;100736.06;;;17.64;96.99
77452;BME280;66537;52.370;4.832;2023-07-29T01:27:26;100735.69;;;17.70;96.55
77452;BME280;66537;52.370;4.832;2023-07-29T01:29:53;100739.28;;;17.54;97.19
77452;BME280;66537;52.370;4.832;2023-07-29T01:35:19;100734.16;;;17.52;97.48
77452;BME280;66537;52.370;4.832;2023-07-29T01:37:55;100732.91;;;17.44;97.73
77452;BME280;66537;52.370;4.832;2023-07-29T01:40:26;100735.53;;;17.44;97.60
77452;BME280;66537;52.370;4.832;2023-07-29T01:42:52;100728.69;;;17.41;98.01
77452;BME280;66537;52.370;4.832;2023-07-29T01:45:18;100732.41;;;17.37;98.19
77452;BME280;66537;52.370;4.832;2023-07-29T01:47:43;100737.91;;;17.33;99.54
77452;BME280;66537;52.370;4.832;2023-07-29T01:50:09;100738.19;;;17.28;99.05
77452;BME280;66537;52.370;4.832;2023-07-29T01:52:34;100722.22;;;17.33;99.14
77452;BME280;66537;52.370;4.832;2023-07-29T01:55:01;100733.56;;;17.17;99.33
77452;BME280;66537;52.370;4.832;2023-07-29T01:57:26;100730.19;;;17.15;100.00
77452;BME280;66537;52.370;4.832;2023-07-29T01:59:51;100731.91;;;17.17;100.00
77452;BME280;66537;52.370;4.832;2023-07-29T02:02:17;100727.25;;;17.06;100.00
77452;BME280;66537;52.370;4.832;2023-07-29T02:04:42;100722.03;;;17.06;100.00
77452;BME280;66537;52.370;4.832;2023-07-29T02:07:07;100710.16;;;17.00;100.00
77452;BME280;66537;52.370;4.832;2023-07-29T02:09:33;100712.03;;;16.98;100.00
77452;BME280;66537;52.370;4.832;2023-07-29T02:11:58;100710.69;;;16.91;100.00
77452;BME280;66537;52.370;4.832;2023-07-29T02:14:23;100711.78;;;17.03;100.00
77452;BME280;66537;52.370;4.832;2023-07-29T02:16:49;100707.34;;;17.03;99.14
77452;BME280;66537;52.370;4.832;2023-07-29T02:19:15;100709.59;;;16.95;99.38
77452;BME280;66537;52.370;4.832;2023-07-29T02:21:40;100707.22;;;16.91;100.00
77452;BME280;66537;52.370;4.832;2023-07-29T02:24:06;100715.66;;;16.80;100.00
77452;BME280;66537;52.370;4.832;2023-07-29T02:26:31;100715.66;;;16.80;100.00
77452;BME280;66537;52.370;4.832;2023-07-29T02:28:56;100706.91;;;16.81;100.00
77452;BME280;66537;52.370;4.832;2023-07-29T02:31:23;100705.41;;;16.77;100.00
77452;BME280;66537;52.370;4.832;2023-07-29T02:33:49;100714.09;;;16.78;100.00
77452;BME280;66537;52.370;4.832;2023-07-29T02:36:15;100713.22;;;16.77;100.00
77452;BME280;66537;52.370;4.832;2023-07-29T02:38:41;100714.09;;;16.78;100.00
77452;BME280;66537;52.370;4.832;2023-07-29T02:41:08;100707.66;;;16.83;100.00
77452;BME280;66537;52.370;4.832;2023-07-29T02:43:35;100709.84;;;16.75;100.00
77452;BME280;66537;52.370;4.832;2023-07-29T02:46:00;100713.31;;;16.76;100.00
77452;BME280;66537;52.370;4.832;2023-07-29T02:48:26;100712.97;;;16.82;100.00
77452;BME280;66537;52.370;4.832;2023-07-29T02:50:51;100708.53;;;16.84;100.00
77452;BME280;66537;52.370;4.832;2023-07-29T02:53:16;100705.91;;;16.84;100.00
77452;BME280;66537;52.370;4.832;2023-07-29T02:55:42;100704.53;;;16.77;100.00
77452;BME280;66537;52.370;4.832;2023-07-29T02:58:07;100691.72;;;16.88;100.00
77452;BME280;66537;52.370;4.832;2023-07-29T03:00:33;100688.72;;;16.80;100.00
77452;BME280;66537;52.370;4.832;2023-07-29T03:02:59;100693.63;;;16.70;100.00
77452;BME280;66537;52.370;4.832;2023-07-29T03:05:27;100690.50;;;16.64;100.00
77452;BME280;66537;52.370;4.832;2023-07-29T03:07:53;100686.28;;;16.61;100.00
77452;BME280;66537;52.370;4.832;2023-07-29T03:10:18;100685.38;;;16.62;100.00
77452;BME280;66537;52.370;4.832;2023-07-29T03:12:43;100678.75;;;16.71;100.00
77452;BME280;66537;52.370;4.832;2023-07-29T03:15:09;100676.34;;;16.68;100.00
77452;BME280;66537;52.370;4.832;2023-07-29T03:17:34;100669.34;;;16.68;100.00
77452;BME280;66537;52.370;4.832;2023-07-29T03:19:59;100660.91;;;16.63;100.00
77452;BME280;66537;52.370;4.832;2023-07-29T03:22:25;100668.09;;;16.60;100.00
77452;BME280;66537;52.370;4.832;2023-07-29T03:24:50;100670.94;;;16.55;100.00
77452;BME280;66537;52.370;4.832;2023-07-29T03:27:15;100667.31;;;16.58;100.00
77452;BME280;66537;52.370;4.832;2023-07-29T03:29:41;100671.44;;;16.62;100.00
77452;BME280;66537;52.370;4.832;2023-07-29T03:32:07;100669.94;;;16.58;100.00
77452;BME280;66537;52.370;4.832;2023-07-29T03:34:32;100685.78;;;16.55;100.00
77452;BME280;66537;52.370;4.832;2023-07-29T03:36:58;100669.50;;;16.50;100.00
77452;BME280;66537;52.370;4.832;2023-07-29T03:39:23;100673.66;;;16.54;100.00
77452;BME280;66537;52.370;4.832;2023-07-29T03:41:49;100672.63;;;16.56;100.00
77452;BME280;66537;52.370;4.832;2023-07-29T03:44:14;100671.97;;;16.53;100.00
77452;BME280;66537;52.370;4.832;2023-07-29T03:46:40;100685.69;;;16.56;100.00
77452;BME280;66537;52.370;4.832;2023-07-29T03:49:05;100685.59;;;16.58;100.00
77452;BME280;66537;52.370;4.832;2023-07-29T03:51:30;100694.19;;;16.60;100.00
77452;BME280;66537;52.370;4.832;2023-07-29T03:53:55;100689.16;;;16.72;100.00
77452;BME280;66537;52.370;4.832;2023-07-29T03:56:21;100689.88;;;16.74;100.00
77452;BME280;66537;52.370;4.832;2023-07-29T03:58:46;100688.28;;;16.87;100.00
77452;BME280;66537;52.370;4.832;2023-07-29T04:01:13;100686.91;;;16.80;100.00
77452;BME280;66537;52.370;4.832;2023-07-29T04:03:38;100689.81;;;16.76;100.00
77452;BME280;66537;52.370;4.832;2023-07-29T04:06:04;100677.97;;;16.84;100.00
77452;BME280;66537;52.370;4.832;2023-07-29T04:08:29;100667.72;;;16.81;100.00
77452;BME280;66537;52.370;4.832;2023-07-29T04:10:55;100677.41;;;16.79;100.00
77452;BME280;66537;52.370;4.832;2023-07-29T04:13:20;100689.31;;;16.69;100.00
77452;BME280;66537;52.370;4.832;2023-07-29T04:15:46;100703.03;;;16.73;100.00
77452;BME280;66537;52.370;4.832;2023-07-29T04:18:11;100699.31;;;16.77;100.00
77452;BME280;66537;52.370;4.832;2023-07-29T04:20:36;100692.25;;;16.79;100.00
77452;BME280;66537;52.370;4.832;2023-07-29T04:23:02;100693.50;;;16.87;100.00
77452;BME280;66537;52.370;4.832;2023-07-29T04:25:27;100691.47;;;16.92;100.00
77452;BME280;66537;52.370;4.832;2023-07-29T04:27:53;100691.03;;;16.84;100.00
77452;BME280;66537;52.370;4.832;2023-07-29T04:30:19;100688.84;;;16.92;100.00
77452;BME280;66537;52.370;4.832;2023-07-29T04:32:44;100683.63;;;16.92;100.00
77452;BME280;66537;52.370;4.832;2023-07-29T04:35:10;100691.47;;;16.92;100.00
77452;BME280;66537;52.370;4.832;2023-07-29T04:37:35;100683.31;;;16.83;100.00
77452;BME280;66537;52.370;4.832;2023-07-29T04:40:01;100687.69;;;16.82;100.00
77452;BME280;66537;52.370;4.832;2023-07-29T04:42:27;100687.84;;;16.95;100.00
77452;BME280;66537;52.370;4.832;2023-07-29T04:44:52;100690.69;;;16.90;100.00
77452;BME280;66537;52.370;4.832;2023-07-29T04:47:17;100682.72;;;16.93;100.00
77452;BME280;66537;52.370;4.832;2023-07-29T04:49:43;100688.94;;;16.91;100.00
77452;BME280;66537;52.370;4.832;2023-07-29T04:52:08;100696.00;;;17.04;100.00
77452;BME280;66537;52.370;4.832;2023-07-29T04:54:33;100695.28;;;17.17;100.00
77452;BME280;66537;52.370;4.832;2023-07-29T04:56:59;100690.56;;;17.07;100.00
77452;BME280;66537;52.370;4.832;2023-07-29T04:59:24;100692.50;;;17.20;100.00
77452;BME280;66537;52.370;4.832;2023-07-29T05:01:49;100697.25;;;17.27;100.00
77452;BME280;66537;52.370;4.832;2023-07-29T05:04:15;100702.78;;;17.37;100.00
77452;BME280;66537;52.370;4.832;2023-07-29T05:06:40;100691.78;;;17.32;100.00
77452;BME280;66537;52.370;4.832;2023-07-29T05:09:16;100690.78;;;17.34;100.00
77452;BME280;66537;52.370;4.832;2023-07-29T05:11:43;100690.47;;;17.39;100.00
77452;BME280;66537;52.370;4.832;2023-07-29T05:14:10;100699.06;;;17.41;100.00
77452;BME280;66537;52.370;4.832;2023-07-29T05:16:36;100702.78;;;17.52;100.00
77452;BME280;66537;52.370;4.832;2023-07-29T05:19:01;100694.44;;;17.46;100.00
77452;BME280;66537;52.370;4.832;2023-07-29T05:21:27;100691.81;;;17.46;100.00
77452;BME280;66537;52.370;4.832;2023-07-29T05:23:52;100691.28;;;17.55;100.00
77452;BME280;66537;52.370;4.832;2023-07-29T05:26:17;100699.16;;;17.69;100.00
77452;BME280;66537;52.370;4.832;2023-07-29T05:28:42;100694.94;;;17.66;100.00
77452;BME280;66537;52.370;4.832;2023-07-29T05:31:08;100699.63;;;17.61;100.00
77452;BME280;66537;52.370;4.832;2023-07-29T05:33:33;100693.72;;;17.58;100.00
77452;BME280;66537;52.370;4.832;2023-07-29T05:35:58;100701.78;;;17.69;100.00
77452;BME280;66537;52.370;4.832;2023-07-29T05:38:24;100698.47;;;17.65;100.00
77452;BME280;66537;52.370;4.832;2023-07-29T05:40:49;100691.78;;;17.61;100.00
77452;BME280;66537;52.370;4.832;2023-07-29T05:43:15;100686.44;;;17.63;100.00
77452;BME280;66537;52.370;4.832;2023-07-29T05:45:40;100686.00;;;17.70;100.00
77452;BME280;66537;52.370;4.832;2023-07-29T05:48:05;100693.75;;;17.72;100.00
77452;BME280;66537;52.370;4.832;2023-07-29T05:50:31;100685.53;;;17.92;100.00
77452;BME280;66537;52.370;4.832;2023-07-29T05:52:56;100690.72;;;18.20;100.00
77452;BME280;66537;52.370;4.832;2023-07-29T05:55:22;100686.50;;;18.32;100.00
77452;BME280;66537;52.370;4.832;2023-07-29T05:57:47;100690.06;;;18.31;100.00
77452;BME280;66537;52.370;4.832;2023-07-29T06:00:12;100693.84;;;18.13;100.00
77452;BME280;66537;52.370;4.832;2023-07-29T06:02:38;100695.53;;;18.14;100.00
77452;BME280;66537;52.370;4.832;2023-07-29T06:05:04;100685.78;;;18.16;100.00
77452;BME280;66537;52.370;4.832;2023-07-29T06:07:30;100684.75;;;18.04;100.00
77452;BME280;66537;52.370;4.832;2023-07-29T06:09:57;100691.13;;;18.14;100.00
77452;BME280;66537;52.370;4.832;2023-07-29T06:12:23;100693.09;;;18.11;100.00
77452;BME280;66537;52.370;4.832;2023-07-29T06:14:48;100693.19;;;18.09;100.00
77452;BME280;66537;52.370;4.832;2023-07-29T06:17:13;100698.53;;;18.08;100.00
77452;BME280;66537;52.370;4.832;2023-07-29T06:19:39;100696.81;;;18.07;100.00
77452;BME280;66537;52.370;4.832;2023-07-29T06:22:04;100698.88;;;18.16;100.00
77452;BME280;66537;52.370;4.832;2023-07-29T06:24:30;100702.53;;;18.27;100.00
77452;BME280;66537;52.370;4.832;2023-07-29T06:26:56;100711.03;;;18.17;100.00
77452;BME280;66537;52.370;4.832;2023-07-29T06:29:21;100705.22;;;18.26;100.00
77452;BME280;66537;52.370;4.832;2023-07-29T06:31:47;100714.41;;;18.19;100.00
77452;BME280;66537;52.370;4.832;2023-07-29T06:34:12;100716.66;;;18.11;100.00
77452;BME280;66537;52.370;4.832;2023-07-29T06:36:37;100709.38;;;18.01;100.00
77452;BME280;66537;52.370;4.832;2023-07-29T06:39:03;100718.25;;;18.13;100.00
77452;BME280;66537;52.370;4.832;2023-07-29T06:41:28;100720.00;;;18.13;100.00
77452;BME280;66537;52.370;4.832;2023-07-29T06:43:53;100716.38;;;18.15;100.00
77452;BME280;66537;52.370;4.832;2023-07-29T06:46:19;100715.44;;;18.16;100.00
77452;BME280;66537;52.370;4.832;2023-07-29T06:48:44;100713.75;;;18.15;100.00
77452;BME280;66537;52.370;4.832;2023-07-29T06:51:09;100715.78;;;18.24;100.00
77452;BME280;66537;52.370;4.832;2023-07-29T06:53:35;100717.03;;;18.19;100.00
77452;BME280;66537;52.370;4.832;2023-07-29T06:56:00;100721.97;;;18.23;100.00
77452;BME280;66537;52.370;4.832;2023-07-29T06:58:26;100720.66;;;18.30;100.00
77452;BME280;66537;52.370;4.832;2023-07-29T07:00:52;100723.19;;;18.46;100.00
77452;BME280;66537;52.370;4.832;2023-07-29T07:03:17;100718.81;;;18.73;100.00
77452;BME280;66537;52.370;4.832;2023-07-29T07:05:43;100722.06;;;19.03;100.00
77452;BME280;66537;52.370;4.832;2023-07-29T07:08:08;100713.69;;;18.98;99.88
77452;BME280;66537;52.370;4.832;2023-07-29T07:10:34;100711.72;;;18.75;100.00
77452;BME280;66537;52.370;4.832;2023-07-29T07:12:59;100712.31;;;18.66;100.00
77452;BME280;66537;52.370;4.832;2023-07-29T07:15:25;100714.81;;;18.67;100.00
77452;BME280;66537;52.370;4.832;2023-07-29T07:17:51;100712.47;;;18.89;100.00
77452;BME280;66537;52.370;4.832;2023-07-29T07:20:17;100702.69;;;19.06;100.00
77452;BME280;66537;52.370;4.832;2023-07-29T07:22:42;100710.47;;;19.84;95.39
77452;BME280;66537;52.370;4.832;2023-07-29T07:25:08;100706.06;;;20.58;93.30
77452;BME280;66537;52.370;4.832;2023-07-29T07:27:33;100705.56;;;21.13;87.10
77452;BME280;66537;52.370;4.832;2023-07-29T07:29:58;100703.78;;;21.25;86.37
77452;BME280;66537;52.370;4.832;2023-07-29T07:32:24;100705.84;;;20.85;86.22
77452;BME280;66537;52.370;4.832;2023-07-29T07:34:49;100712.16;;;20.23;87.41
77452;BME280;66537;52.370;4.832;2023-07-29T07:37:15;100705.53;;;20.05;88.58
77452;BME280;66537;52.370;4.832;2023-07-29T07:39:40;100709.63;;;20.09;91.50
77452;BME280;66537;52.370;4.832;2023-07-29T07:42:06;100701.22;;;20.04;90.92
77452;BME280;66537;52.370;4.832;2023-07-29T07:44:31;100716.97;;;19.78;91.93
77452;BME280;66537;52.370;4.832;2023-07-29T07:46:56;100714.28;;;19.55;92.96
77452;BME280;66537;52.370;4.832;2023-07-29T07:49:22;100721.06;;;19.18;99.66
77452;BME280;66537;52.370;4.832;2023-07-29T07:51:48;100723.38;;;18.83;100.00
77452;BME280;66537;52.370;4.832;2023-07-29T07:54:13;100734.84;;;18.54;100.00
77452;BME280;66537;52.370;4.832;2023-07-29T07:56:38;100732.72;;;18.33;100.00
77452;BME280;66537;52.370;4.832;2023-07-29T07:59:04;100740.66;;;18.31;100.00
77452;BME280;66537;52.370;4.832;2023-07-29T08:01:36;100747.97;;;18.40;100.00
77452;BME280;66537;52.370;4.832;2023-07-29T08:04:03;100743.13;;;18.48;100.00
77452;BME280;66537;52.370;4.832;2023-07-29T08:06:28;100741.09;;;19.46;100.00
77452;BME280;66537;52.370;4.832;2023-07-29T08:08:54;100753.53;;;19.69;99.53
77452;BME280;66537;52.370;4.832;2023-07-29T08:11:20;100746.19;;;19.99;95.27
77452;BME280;66537;52.370;4.832;2023-07-29T08:13:45;100755.53;;;20.41;93.39
77452;BME280;66537;52.370;4.832;2023-07-29T08:16:12;100753.53;;;20.81;87.28
77452;BME280;66537;52.370;4.832;2023-07-29T08:18:37;100755.72;;;20.50;86.04
77452;BME280;66537;52.370;4.832;2023-07-29T08:21:02;100756.56;;;19.63;87.71
77452;BME280;66537;52.370;4.832;2023-07-29T08:23:29;100756.34;;;19.53;88.17
77452;BME280;66537;52.370;4.832;2023-07-29T08:25:56;100759.59;;;19.18;89.57
77452;BME280;66537;52.370;4.832;2023-07-29T08:28:26;100763.75;;;19.08;91.67
77452;BME280;66537;52.370;4.832;2023-07-29T08:30:52;100762.78;;;19.09;93.39
77452;BME280;66537;52.370;4.832;2023-07-29T08:33:17;100754.22;;;19.33;90.36
77452;BME280;66537;52.370;4.832;2023-07-29T08:35:42;100763.97;;;19.44;90.82
77452;BME280;66537;52.370;4.832;2023-07-29T08:38:08;100750.78;;;19.70;89.83
77452;BME280;66537;52.370;4.832;2023-07-29T08:40:35;100762.66;;;19.63;88.14
77452;BME280;66537;52.370;4.832;2023-07-29T08:43:04;100744.28;;;19.24;90.04
77452;BME280;66537;52.370;4.832;2023-07-29T08:45:33;100750.13;;;19.15;90.04
77452;BME280;66537;52.370;4.832;2023-07-29T08:48:00;100749.94;;;19.45;89.23
77452;BME280;66537;52.370;4.832;2023-07-29T08:50:28;100741.69;;;19.76;87.47
77452;BME280;66537;52.370;4.832;2023-07-29T08:52:55;100754.47;;;19.80;86.85
77452;BME280;66537;52.370;4.832;2023-07-29T08:55:21;100756.22;;;19.42;89.37
77452;BME280;66537;52.370;4.832;2023-07-29T08:57:47;100760.50;;;19.17;88.94
77452;BME280;66537;52.370;4.832;2023-07-29T09:00:12;100761.78;;;18.97;91.36
77452;BME280;66537;52.370;4.832;2023-07-29T09:02:38;100771.81;;;19.05;90.87
77452;BME280;66537;52.370;4.832;2023-07-29T09:05:04;100766.81;;;19.14;90.14
77452;BME280;66537;52.370;4.832;2023-07-29T09:07:30;100774.13;;;19.09;89.24
77452;BME280;66537;52.370;4.832;2023-07-29T09:09:58;100770.56;;;19.10;89.31
77452;BME280;66537;52.370;4.832;2023-07-29T09:12:23;100767.97;;;19.10;88.16
77452;BME280;66537;52.370;4.832;2023-07-29T09:14:52;100777.13;;;19.03;89.33
77452;BME280;66537;52.370;4.832;2023-07-29T09:17:18;100785.13;;;18.87;87.26
77452;BME280;66537;52.370;4.832;2023-07-29T09:19:50;100777.63;;;18.96;87.49
77452;BME280;66537;52.370;4.832;2023-07-29T09:22:20;100777.53;;;18.97;87.81
77452;BME280;66537;52.370;4.832;2023-07-29T09:24:47;100779.56;;;19.06;87.46
77452;BME280;66537;52.370;4.832;2023-07-29T09:27:25;100774.88;;;19.11;87.19
77452;BME280;66537;52.370;4.832;2023-07-29T09:29:52;100765.34;;;19.10;88.51
77452;BME280;66537;52.370;4.832;2023-07-29T09:32:22;100773.78;;;19.28;86.07
77452;BME280;66537;52.370;4.832;2023-07-29T09:34:48;100774.41;;;19.70;84.93
77452;BME280;66537;52.370;4.832;2023-07-29T09:37:18;100769.31;;;20.19;83.51
77452;BME280;66537;52.370;4.832;2023-07-29T09:39:46;100766.88;;;20.04;81.46
77452;BME280;66537;52.370;4.832;2023-07-29T09:42:17;100761.84;;;20.26;82.67
77452;BME280;66537;52.370;4.832;2023-07-29T09:44:43;100770.34;;;20.29;81.99
77452;BME280;66537;52.370;4.832;2023-07-29T09:47:09;100774.03;;;20.39;83.29
77452;BME280;66537;52.370;4.832;2023-07-29T09:49:35;100767.31;;;20.10;81.06
77452;BME280;66537;52.370;4.832;2023-07-29T09:52:01;100761.56;;;20.30;81.25
77452;BME280;66537;52.370;4.832;2023-07-29T09:54:30;100766.94;;;20.89;78.49
77452;BME280;66537;52.370;4.832;2023-07-29T09:56:56;100751.34;;;21.45;76.60
77452;BME280;66537;52.370;4.832;2023-07-29T09:59:23;100747.84;;;21.45;74.51
77452;BME280;66537;52.370;4.832;2023-07-29T10:01:48;100759.84;;;21.49;74.27
77452;BME280;66537;52.370;4.832;2023-07-29T10:04:14;100770.06;;;21.30;76.12
77452;BME280;66537;52.370;4.832;2023-07-29T10:06:41;100772.25;;;21.36;75.38
77452;BME280;66537;52.370;4.832;2023-07-29T10:09:09;100783.53;;;20.65;76.82
77452;BME280;66537;52.370;4.832;2023-07-29T10:11:36;100766.81;;;20.30;77.32
77452;BME280;66537;52.370;4.832;2023-07-29T10:14:02;100769.44;;;20.30;77.77
77452;BME280;66537;52.370;4.832;2023-07-29T10:16:28;100768.47;;;20.31;78.97
77452;BME280;66537;52.370;4.832;2023-07-29T10:18:54;100768.28;;;21.30;77.21
77452;BME280;66537;52.370;4.832;2023-07-29T10:21:22;100768.16;;;21.32;77.17
77452;BME280;66537;52.370;4.832;2023-07-29T10:23:50;100784.13;;;21.18;77.21
77452;BME280;66537;52.370;4.832;2023-07-29T10:26:19;100775.88;;;20.62;79.11
77452;BME280;66537;52.370;4.832;2023-07-29T10:28:47;100781.50;;;20.45;79.43
77452;BME280;66537;52.370;4.832;2023-07-29T10:31:16;100794.00;;;20.29;82.76
77452;BME280;66537;52.370;4.832;2023-07-29T10:33:42;100789.25;;;20.09;83.03
77452;BME280;66537;52.370;4.832;2023-07-29T10:36:09;100790.41;;;19.93;85.92
77452;BME280;66537;52.370;4.832;2023-07-29T10:38:35;100779.06;;;19.92;87.50
77452;BME280;66537;52.370;4.832;2023-07-29T10:41:00;100788.81;;;20.15;85.41
77452;BME280;66537;52.370;4.832;2023-07-29T10:43:33;100789.06;;;20.37;81.25
77452;BME280;66537;52.370;4.832;2023-07-29T10:46:15;100790.06;;;20.60;81.17
77452;BME280;66537;52.370;4.832;2023-07-29T10:51:34;100794.00;;;20.17;79.61
77452;BME280;66537;52.370;4.832;2023-07-29T10:54:18;100795.78;;;19.91;79.98
77452;BME280;66537;52.370;4.832;2023-07-29T10:56:48;100798.81;;;20.10;82.88
77452;BME280;66537;52.370;4.832;2023-07-29T11:01:50;100785.69;;;20.23;81.94
77452;BME280;66537;52.370;4.832;2023-07-29T11:12:43;100782.66;;;21.14;77.44
77452;BME280;66537;52.370;4.832;2023-07-29T11:20:31;100779.06;;;20.55;80.24
77452;BME280;66537;52.370;4.832;2023-07-29T11:22:58;100775.47;;;20.56;80.76
77452;BME280;66537;52.370;4.832;2023-07-29T11:25:27;100773.25;;;20.62;79.87
77452;BME280;66537;52.370;4.832;2023-07-29T11:27:57;100773.59;;;20.45;80.16
77452;BME280;66537;52.370;4.832;2023-07-29T11:30:23;100780.47;;;20.72;81.68
77452;BME280;66537;52.370;4.832;2023-07-29T11:32:53;100784.03;;;20.22;81.49
77452;BME280;66537;52.370;4.832;2023-07-29T11:35:19;100783.72;;;20.26;81.86
77452;BME280;66537;52.370;4.832;2023-07-29T11:37:46;100778.28;;;20.65;81.72
77452;BME280;66537;52.370;4.832;2023-07-29T11:40:16;100778.13;;;20.80;80.18
77452;BME280;66537;52.370;4.832;2023-07-29T11:42:42;100789.69;;;20.77;78.66
77452;BME280;66537;52.370;4.832;2023-07-29T11:45:08;100772.13;;;20.90;78.83
77452;BME280;66537;52.370;4.832;2023-07-29T11:47:35;100779.56;;;21.20;77.58
77452;BME280;66537;52.370;4.832;2023-07-29T11:50:05;100777.03;;;21.31;76.32
77452;BME280;66537;52.370;4.832;2023-07-29T11:52:32;100787.47;;;21.20;78.47
77452;BME280;66537;52.370;4.832;2023-07-29T11:54:58;100784.84;;;20.84;80.63
77452;BME280;66537;52.370;4.832;2023-07-29T11:57:24;100793.03;;;19.93;85.92
77452;BME280;66537;52.370;4.832;2023-07-29T11:59:49;100801.78;;;19.41;93.03
77452;BME280;66537;52.370;4.832;2023-07-29T12:02:16;100805.94;;;19.44;96.85
77452;BME280;66537;52.370;4.832;2023-07-29T12:04:44;100796.53;;;19.54;94.92
77452;BME280;66537;52.370;4.832;2023-07-29T12:07:10;100796.41;;;20.07;93.29
77452;BME280;66537;52.370;4.832;2023-07-29T12:09:36;100796.53;;;20.18;92.69
77452;BME280;66537;52.370;4.832;2023-07-29T12:12:03;100794.00;;;19.92;92.94
77452;BME280;66537;52.370;4.832;2023-07-29T12:14:29;100794.81;;;19.79;93.13
77452;BME280;66537;52.370;4.832;2023-07-29T12:16:54;100791.53;;;19.63;94.82
77452;BME280;66537;52.370;4.832;2023-07-29T12:19:21;100786.09;;;19.66;91.59
77452;BME280;66537;52.370;4.832;2023-07-29T12:21:47;100793.91;;;19.54;91.93
77452;BME280;66537;52.370;4.832;2023-07-29T12:24:13;100789.13;;;19.60;91.17
77452;BME280;66537;52.370;4.832;2023-07-29T12:26:40;100791.25;;;19.93;90.79
77452;BME280;66537;52.370;4.832;2023-07-29T12:29:16;100787.03;;;19.78;88.99
77452;BME280;66537;52.370;4.832;2023-07-29T12:31:42;100780.22;;;20.13;88.72
77452;BME280;66537;52.370;4.832;2023-07-29T12:34:08;100774.00;;;20.52;86.70
77452;BME280;66537;52.370;4.832;2023-07-29T12:36:48;100773.06;;;20.40;85.47
77452;BME280;66537;52.370;4.832;2023-07-29T12:39:18;100775.13;;;20.97;84.30
77452;BME280;66537;52.370;4.832;2023-07-29T12:41:43;100777.75;;;20.97;81.65
77452;BME280;66537;52.370;4.832;2023-07-29T12:44:09;100786.63;;;20.59;81.87
77452;BME280;66537;52.370;4.832;2023-07-29T12:46:34;100780.88;;;20.42;81.36
77452;BME280;66537;52.370;4.832;2023-07-29T12:49:00;100779.47;;;20.36;80.84
77452;BME280;66537;52.370;4.832;2023-07-29T12:51:25;100787.91;;;20.41;82.68
77452;BME280;66537;52.370;4.832;2023-07-29T12:53:50;100783.88;;;20.97;80.76
77452;BME280;66537;52.370;4.832;2023-07-29T12:56:16;100782.28;;;20.95;80.68
77452;BME280;66537;52.370;4.832;2023-07-29T12:58:41;100788.72;;;21.03;79.60
77452;BME280;66537;52.370;4.832;2023-07-29T13:01:06;100783.13;;;20.95;78.89
77452;BME280;66537;52.370;4.832;2023-07-29T13:03:32;100786.19;;;21.02;79.72
77452;BME280;66537;52.370;4.832;2023-07-29T13:05:57;100786.81;;;21.05;77.80
77452;BME280;66537;52.370;4.832;2023-07-29T13:08:22;100789.88;;;20.87;79.01